createdAt,value
2023-04-02T00:04:46.025Z,97276.00
2023-04-02T00:09:50.227Z,97284.41
2023-04-02T00:14:58.216Z,97284.22
2023-04-02T00:20:07.804Z,97293.59
2023-04-02T00:25:14.407Z,97293.69
2023-04-02T00:30:18.731Z,97300.69
2023-04-02T00:35:27.321Z,97296.72
2023-04-02T00:40:32.838Z,97295.84
2023-04-02T00:45:38.374Z,97296.25
2023-04-02T00:50:45.745Z,97286.63
2023-04-02T00:55:49.856Z,97304.72
2023-04-02T01:00:54.323Z,97303.34
2023-04-02T01:06:03.088Z,97308.88
2023-04-02T01:11:16.449Z,97311.19
2023-04-02T01:16:29.544Z,97313.34
2023-04-02T01:21:43.115Z,97315.28
2023-04-02T01:26:54.717Z,97309.88
2023-04-02T01:32:03.651Z,97304.50
2023-04-02T01:37:22.244Z,97321.22
2023-04-02T01:42:33.521Z,97318.19
2023-04-02T01:47:39.352Z,97314.31
2023-04-02T01:52:45.396Z,97322.25
2023-04-02T01:57:52.632Z,97318.91
2023-04-02T02:02:58.406Z,97331.28
2023-04-02T02:08:02.433Z,97334.28
2023-04-02T02:13:06.829Z,97337.25
2023-04-02T02:18:13.601Z,97338.72
2023-04-02T02:23:17.972Z,97352.50
2023-04-02T02:28:24.897Z,97353.47
2023-04-02T02:33:33.741Z,97360.66
2023-04-02T02:38:48.848Z,97365.16
2023-04-02T02:44:03.488Z,97373.44
2023-04-02T02:49:11.632Z,97370.84
2023-04-02T02:54:16.348Z,97380.72
2023-04-02T02:59:21.660Z,97383.97
2023-04-02T03:04:30.629Z,97388.66
2023-04-02T03:09:43.069Z,97393.53
2023-04-02T03:14:54.710Z,97395.00
2023-04-02T03:20:06.460Z,97394.66
2023-04-02T03:25:25.461Z,97400.66
2023-04-02T03:30:39.301Z,97405.69
2023-04-02T03:35:49.238Z,97416.03
2023-04-02T03:41:03.349Z,97423.47
2023-04-02T03:46:19.709Z,97421.53
2023-04-02T03:51:28.572Z,97432.66
2023-04-02T03:56:39.856Z,97438.97
2023-04-02T04:01:54.767Z,97449.78
2023-04-02T04:07:02.356Z,97452.53
2023-04-02T04:12:16.130Z,97463.19
2023-04-02T04:17:29.946Z,97473.22
2023-04-02T04:22:38.805Z,97485.47
2023-04-02T04:28:05.893Z,97496.13
2023-04-02T04:33:16.586Z,97506.59
2023-04-02T04:38:32.961Z,97515.47
2023-04-02T04:43:44.344Z,97529.97
2023-04-02T04:48:53.634Z,97530.19
2023-04-02T04:54:01.733Z,97531.84
2023-04-02T04:59:17.116Z,97545.44
2023-04-02T05:04:25.562Z,97548.38
2023-04-02T05:09:35.197Z,97554.13
2023-04-02T05:14:44.501Z,97562.72
2023-04-02T05:19:52.455Z,97576.53
2023-04-02T05:25:14.037Z,97572.09
2023-04-02T05:30:38.537Z,97586.41
2023-04-02T05:35:46.017Z,97584.84
2023-04-02T05:40:59.672Z,97594.97
2023-04-02T05:46:09.131Z,97607.72
2023-04-02T05:51:17.814Z,97621.66
2023-04-02T05:56:26.274Z,97632.41
2023-04-02T06:01:36.473Z,97635.75
2023-04-02T06:06:51.669Z,97637.34
2023-04-02T06:12:03.607Z,97644.06
2023-04-02T06:17:13.053Z,97657.41
2023-04-02T06:22:25.493Z,97679.28
2023-04-02T06:27:36.578Z,97679.88
2023-04-02T06:32:43.712Z,97684.75
2023-04-02T06:37:52.699Z,97680.97
2023-04-02T06:43:07.054Z,97688.81
2023-04-02T06:48:35.108Z,97691.53
2023-04-02T06:53:42.265Z,97710.91
2023-04-02T06:58:52.629Z,97721.88
2023-04-02T07:03:58.328Z,97727.84
2023-04-02T07:09:08.639Z,97727.06
2023-04-02T07:14:17.514Z,97735.44
2023-04-02T07:19:23.957Z,97743.00
2023-04-02T07:24:33.997Z,97744.00
2023-04-02T07:29:42.812Z,97755.34
2023-04-02T07:34:47.390Z,97757.88
2023-04-02T07:39:51.868Z,97774.78
2023-04-02T07:44:57.865Z,97790.50
2023-04-02T07:50:02.215Z,97789.47
2023-04-02T07:55:07.856Z,97802.91
2023-04-02T08:00:16.006Z,97809.16
2023-04-02T08:05:20.621Z,97819.38
2023-04-02T08:10:24.797Z,97820.84
2023-04-02T08:15:30.349Z,97833.72
2023-04-02T08:20:34.615Z,97833.53
2023-04-02T08:25:38.761Z,97843.88
2023-04-02T08:30:44.585Z,97857.78
2023-04-02T08:35:49.647Z,97860.47
2023-04-02T08:40:57.530Z,97860.31
2023-04-02T08:46:10.696Z,97869.00
2023-04-02T08:51:24.035Z,97874.88
2023-04-02T08:56:31.887Z,97880.69
2023-04-02T09:01:47.240Z,97888.13
2023-04-02T09:06:53.775Z,97889.88
2023-04-02T09:12:00.985Z,97901.59
2023-04-02T09:17:14.042Z,97910.53
2023-04-02T09:22:21.661Z,97921.22
2023-04-02T09:27:27.384Z,97925.81
2023-04-02T09:32:46.435Z,97932.75
2023-04-02T09:38:11.570Z,97939.91
2023-04-02T09:43:17.481Z,97954.91
2023-04-02T09:48:27.110Z,97959.81
2023-04-02T09:53:34.360Z,97970.75
2023-04-02T09:58:38.397Z,97976.66
2023-04-02T10:03:44.425Z,97975.63
2023-04-02T10:08:48.673Z,97979.88
2023-04-02T10:13:55.023Z,97973.91
2023-04-02T10:19:05.342Z,97987.34
2023-04-02T10:24:13.311Z,98002.94
2023-04-02T10:29:27.452Z,97998.47
2023-04-02T10:34:38.874Z,98014.19
2023-04-02T10:39:47.417Z,98012.50
2023-04-02T10:44:56.435Z,98017.06
2023-04-02T10:50:09.352Z,98028.66
2023-04-02T10:55:17.946Z,98023.38
2023-04-02T11:00:25.135Z,98039.28
2023-04-02T11:05:38.178Z,98042.09
2023-04-02T11:10:45.814Z,98051.75
2023-04-02T11:15:49.930Z,98046.53
2023-04-02T11:21:01.169Z,98056.34
2023-04-02T11:26:38.560Z,98063.16
2023-04-02T11:31:43.743Z,98078.94
2023-04-02T11:37:03.651Z,98088.19
2023-04-02T11:42:27.361Z,98096.19
2023-04-02T11:47:31.340Z,98092.47
2023-04-02T11:52:50.768Z,98098.22
2023-04-02T11:58:32.399Z,98108.56
2023-04-02T12:03:47.982Z,98120.81
2023-04-02T12:08:59.134Z,98125.56
2023-04-02T12:14:07.539Z,98129.75
2023-04-02T12:19:17.601Z,98137.81
2023-04-02T12:24:24.833Z,98135.75
2023-04-02T12:29:30.566Z,98136.03
2023-04-02T12:34:35.236Z,98145.94
2023-04-02T12:39:41.404Z,98150.19
2023-04-02T12:44:50.278Z,98152.47
2023-04-02T12:49:55.729Z,98157.22
2023-04-02T12:55:03.614Z,98161.56
2023-04-02T13:00:31.029Z,98177.75
2023-04-02T13:05:39.548Z,98176.66
2023-04-02T13:10:45.775Z,98176.28
2023-04-02T13:16:05.898Z,98190.94
2023-04-02T13:21:28.532Z,98191.59
2023-04-02T13:26:35.604Z,98196.78
2023-04-02T13:31:39.909Z,98207.81
2023-04-02T13:37:10.147Z,98217.31
2023-04-02T13:42:15.635Z,98222.34
2023-04-02T13:47:19.789Z,98218.41
2023-04-02T13:52:24.089Z,98233.22
2023-04-02T13:57:29.746Z,98239.22
2023-04-02T14:02:34.393Z,98237.84
2023-04-02T14:07:51.833Z,98242.19
2023-04-02T14:13:12.272Z,98242.47
2023-04-02T14:18:28.737Z,98243.16
2023-04-02T14:23:43.114Z,98260.13
2023-04-02T14:28:57.550Z,98253.47
2023-04-02T14:34:07.994Z,98263.25
2023-04-02T14:39:18.498Z,98271.00
2023-04-02T14:44:26.516Z,98264.06
2023-04-02T14:49:36.103Z,98273.41
2023-04-02T14:54:50.161Z,98277.72
2023-04-02T15:00:01.878Z,98281.34
2023-04-02T15:05:15.512Z,98294.78
2023-04-02T15:10:27.337Z,98304.56
2023-04-02T15:15:42.805Z,98307.44
2023-04-02T15:20:57.796Z,98309.50
2023-04-02T15:26:08.598Z,98318.50
2023-04-02T15:31:15.618Z,98321.56
2023-04-02T15:36:52.143Z,98333.41
2023-04-02T15:42:05.561Z,98336.44
2023-04-02T15:47:16.520Z,98345.88
2023-04-02T15:52:27.000Z,98351.47
2023-04-02T15:57:46.650Z,98352.03
2023-04-02T16:03:18.422Z,98351.59
2023-04-02T16:08:41.922Z,98366.59
2023-04-02T16:13:47.526Z,98361.25
2023-04-02T16:19:00.123Z,98382.75
2023-04-02T16:24:07.168Z,98377.97
2023-04-02T16:29:26.650Z,98390.03
2023-04-02T16:34:38.782Z,98394.69
2023-04-02T16:39:47.756Z,98396.94
2023-04-02T16:45:01.391Z,98400.97
2023-04-02T16:50:16.865Z,98404.06
2023-04-02T16:55:32.385Z,98407.19
2023-04-02T17:00:43.225Z,98418.56
2023-04-02T17:05:54.689Z,98432.50
2023-04-02T17:11:01.768Z,98434.28
2023-04-02T17:16:13.465Z,98441.31
2023-04-02T17:21:22.675Z,98449.75
2023-04-02T17:26:29.009Z,98449.25
2023-04-02T17:31:35.991Z,98457.00
2023-04-02T17:36:45.111Z,98468.50
2023-04-02T17:41:53.268Z,98468.16
2023-04-02T17:47:02.453Z,98476.00
2023-04-02T17:52:15.064Z,98494.88
2023-04-02T17:57:33.431Z,98498.97
2023-04-02T18:02:56.217Z,98503.44
2023-04-02T18:08:13.758Z,98506.97
2023-04-02T18:13:29.735Z,98511.19
2023-04-02T18:18:50.810Z,98511.06
2023-04-02T18:24:13.933Z,98523.28
2023-04-02T18:29:27.438Z,98537.19
2023-04-02T18:34:52.463Z,98538.59
2023-04-02T18:40:09.240Z,98537.31
2023-04-02T18:45:19.614Z,98553.47
2023-04-02T18:50:25.838Z,98550.91
2023-04-02T18:55:32.444Z,98561.44
2023-04-02T19:00:40.044Z,98564.34
2023-04-02T19:05:50.572Z,98564.00
2023-04-02T19:11:00.132Z,98578.53
2023-04-02T19:16:38.769Z,98581.91
2023-04-02T19:22:00.485Z,98589.06
2023-04-02T19:27:09.889Z,98594.31
2023-04-02T19:32:21.583Z,98599.72
2023-04-02T19:37:32.119Z,98607.09
2023-04-02T19:42:45.029Z,98614.69
2023-04-02T19:47:49.632Z,98613.63
2023-04-02T19:52:53.828Z,98616.06
2023-04-02T19:58:08.835Z,98617.88
2023-04-02T20:03:21.699Z,98632.00
2023-04-02T20:08:26.317Z,98634.91
2023-04-02T20:13:32.132Z,98638.88
2023-04-02T20:18:37.179Z,98644.91
2023-04-02T20:23:41.923Z,98649.44
2023-04-02T20:28:47.796Z,98649.44
2023-04-02T20:33:55.646Z,98655.97
2023-04-02T20:38:59.987Z,98666.81
2023-04-02T20:44:05.533Z,98668.88
2023-04-02T20:49:09.957Z,98667.47
2023-04-02T20:54:14.238Z,98673.00
2023-04-02T20:59:23.166Z,98673.34
2023-04-02T21:04:28.921Z,98680.44
2023-04-02T21:09:34.012Z,98685.97
2023-04-02T21:14:40.343Z,98688.03
2023-04-02T21:19:44.976Z,98684.34
2023-04-02T21:24:49.251Z,98692.88
2023-04-02T21:29:54.896Z,98687.22
2023-04-02T21:34:59.003Z,98685.34
2023-04-02T21:40:03.669Z,98689.25
2023-04-02T21:45:10.253Z,98706.03
2023-04-02T21:50:14.759Z,98697.38
2023-04-02T21:55:18.913Z,98709.81
2023-04-02T22:00:26.442Z,98711.69
2023-04-02T22:05:31.295Z,98719.88
2023-04-02T22:10:36.947Z,98717.69
2023-04-02T22:15:42.550Z,98729.84
2023-04-02T22:20:46.656Z,98736.97
2023-04-02T22:25:51.347Z,98741.47
2023-04-02T22:30:57.516Z,98750.09
2023-04-02T22:36:01.747Z,98740.03
2023-04-02T22:41:08.287Z,98743.34
2023-04-02T22:46:16.469Z,98760.06
2023-04-02T22:51:22.344Z,98745.25
2023-04-02T22:56:31.752Z,98743.53
2023-04-02T23:01:37.886Z,98755.03
2023-04-02T23:06:42.122Z,98750.50
2023-04-02T23:11:46.307Z,98755.88
2023-04-02T23:16:51.953Z,98753.63
2023-04-02T23:21:56.221Z,98753.00
2023-04-02T23:27:02.237Z,98760.78
2023-04-02T23:32:07.859Z,98762.03
2023-04-02T23:37:12.144Z,98766.38
2023-04-02T23:42:16.413Z,98766.78
2023-04-02T23:47:22.559Z,98756.50
2023-04-02T23:52:26.660Z,98764.19
2023-04-02T23:57:30.636Z,98767.16
